createdAt,value
2022-08-22T00:02:31.763Z,22.90
2022-08-22T00:02:55.494Z,23.11
2022-08-22T00:02:59.391Z,22.92
2022-08-22T00:05:00.390Z,22.87
2022-08-22T00:07:36.272Z,22.84
2022-08-22T00:10:07.492Z,22.83
2022-08-22T00:12:58.810Z,22.82
2022-08-22T00:15:42.956Z,22.83
2022-08-22T00:18:31.940Z,22.85
2022-08-22T00:21:10.999Z,22.87
2022-08-22T00:23:47.102Z,22.91
2022-08-22T00:26:24.386Z,22.95
2022-08-22T00:29:07.781Z,22.97
2022-08-22T00:31:39.910Z,22.94
2022-08-22T00:34:16.043Z,22.98
2022-08-22T00:37:02.577Z,22.99
2022-08-22T00:39:40.913Z,22.97
2022-08-22T00:42:09.056Z,22.94
2022-08-22T00:44:45.728Z,22.92
2022-08-22T00:47:34.153Z,22.90
2022-08-22T00:50:02.492Z,22.89
2022-08-22T00:52:37.307Z,22.92
2022-08-22T00:55:29.006Z,22.94
2022-08-22T00:58:29.977Z,22.96
2022-08-22T01:01:03.083Z,22.99
2022-08-22T01:03:37.170Z,23.01
2022-08-22T01:06:08.196Z,23.03
2022-08-22T01:08:36.355Z,23.03
2022-08-22T01:11:13.160Z,23.02
2022-08-22T01:13:47.151Z,23.00
2022-08-22T01:16:33.809Z,23.00
2022-08-22T01:19:01.803Z,22.98
2022-08-22T01:21:42.612Z,22.96
2022-08-22T01:24:29.686Z,22.94
2022-08-22T01:27:16.668Z,22.93
2022-08-22T01:30:04.659Z,22.90
2022-08-22T01:33:00.580Z,22.84
2022-08-22T01:35:48.282Z,22.79
2022-08-22T01:38:35.209Z,22.77
2022-08-22T01:41:06.606Z,22.77
2022-08-22T01:44:00.465Z,22.76
2022-08-22T01:46:29.471Z,22.74
2022-08-22T01:49:08.993Z,22.73
2022-08-22T01:51:39.972Z,22.71
2022-08-22T01:54:25.812Z,22.70
2022-08-22T01:56:58.723Z,22.69
2022-08-22T01:59:34.986Z,22.68
2022-08-22T02:02:19.759Z,22.68
2022-08-22T02:04:50.856Z,22.70
2022-08-22T02:07:18.580Z,22.70
2022-08-22T02:09:50.960Z,22.70
2022-08-22T02:12:26.678Z,22.71
2022-08-22T02:14:54.810Z,22.74
2022-08-22T02:17:26.070Z,22.75
2022-08-22T02:20:12.286Z,22.76
2022-08-22T02:22:53.830Z,22.77
2022-08-22T02:25:25.879Z,22.77
2022-08-22T02:28:06.949Z,22.73
2022-08-22T02:30:43.899Z,22.71
2022-08-22T02:33:30.996Z,22.70
2022-08-22T02:36:22.146Z,22.72
2022-08-22T02:39:05.076Z,22.71
2022-08-22T02:41:44.717Z,22.73
2022-08-22T02:44:15.617Z,22.75
2022-08-22T02:47:09.962Z,22.77
2022-08-22T02:49:56.874Z,22.79
2022-08-22T02:52:28.250Z,22.78
2022-08-22T02:55:00.059Z,22.77
2022-08-22T02:57:28.326Z,22.78
2022-08-22T03:00:32.073Z,22.78
2022-08-22T03:03:27.511Z,22.76
2022-08-22T03:06:07.223Z,22.75
2022-08-22T03:08:35.531Z,22.76
2022-08-22T03:11:23.179Z,22.77
2022-08-22T03:13:51.740Z,22.77
2022-08-22T03:16:22.906Z,22.74
2022-08-22T03:18:59.461Z,22.77
2022-08-22T03:21:53.486Z,22.79
2022-08-22T03:24:29.357Z,22.79
2022-08-22T03:27:00.405Z,22.78
2022-08-22T03:29:30.979Z,22.76
2022-08-22T03:32:16.771Z,22.73
2022-08-22T03:35:08.542Z,22.72
2022-08-22T03:37:37.740Z,22.71
2022-08-22T03:40:05.990Z,22.72
2022-08-22T03:42:40.006Z,22.75
2022-08-22T03:45:07.860Z,22.74
2022-08-22T03:47:38.845Z,22.75
2022-08-22T03:50:28.905Z,22.76
2022-08-22T03:53:19.062Z,22.76
2022-08-22T03:55:47.305Z,22.73
2022-08-22T03:58:27.330Z,22.74
2022-08-22T04:01:15.432Z,22.74
2022-08-22T04:03:43.592Z,22.73
2022-08-22T04:06:23.658Z,22.71
2022-08-22T04:08:54.657Z,22.72
2022-08-22T04:11:41.536Z,22.73
2022-08-22T04:14:24.545Z,22.75
2022-08-22T04:17:04.706Z,22.77
2022-08-22T04:19:41.471Z,22.80
2022-08-22T04:22:12.546Z,22.83
2022-08-22T04:24:52.959Z,22.83
2022-08-22T04:27:25.178Z,22.79
2022-08-22T04:30:09.379Z,22.76
2022-08-22T04:32:41.795Z,22.77
2022-08-22T04:35:14.087Z,22.82
2022-08-22T04:37:53.974Z,22.88
2022-08-22T04:40:29.132Z,22.92
2022-08-22T04:42:59.264Z,22.96
2022-08-22T04:45:52.196Z,22.98
2022-08-22T04:48:34.936Z,23.02
2022-08-22T04:51:10.557Z,23.04
2022-08-22T04:53:57.014Z,23.09
2022-08-22T04:56:45.693Z,23.14
2022-08-22T04:59:16.575Z,23.16
2022-08-22T05:01:49.400Z,23.14
2022-08-22T05:04:29.383Z,23.14
2022-08-22T05:07:04.343Z,23.16
2022-08-22T05:09:33.948Z,23.18
2022-08-22T05:12:05.773Z,23.16
2022-08-22T05:14:45.611Z,23.14
2022-08-22T05:17:17.063Z,23.15
2022-08-22T05:19:50.801Z,23.16
2022-08-22T05:22:23.902Z,23.22
2022-08-22T05:24:55.159Z,23.24
2022-08-22T05:27:29.606Z,23.27
2022-08-22T05:30:08.450Z,23.29
2022-08-22T05:32:43.380Z,23.33
2022-08-22T05:35:11.267Z,23.38
2022-08-22T05:37:43.481Z,23.43
2022-08-22T05:40:22.265Z,23.47
2022-08-22T05:42:51.308Z,23.55
2022-08-22T05:45:19.997Z,23.62
2022-08-22T05:47:52.687Z,23.64
2022-08-22T05:50:28.254Z,23.71
2022-08-22T05:53:01.661Z,23.76
2022-08-22T05:55:48.971Z,23.87
2022-08-22T05:58:35.901Z,23.96
2022-08-22T06:01:19.152Z,23.99
2022-08-22T06:03:57.401Z,24.01
2022-08-22T06:06:27.019Z,24.03
2022-08-22T06:08:57.728Z,24.03
2022-08-22T06:11:33.755Z,24.04
2022-08-22T06:14:15.776Z,24.07
2022-08-22T06:17:06.955Z,24.10
2022-08-22T06:19:36.444Z,24.16
2022-08-22T06:22:05.280Z,24.22
2022-08-22T06:24:36.807Z,24.30
2022-08-22T06:27:07.987Z,24.40
2022-08-22T06:29:45.751Z,24.52
2022-08-22T06:32:16.441Z,24.63
2022-08-22T06:35:04.047Z,24.77
2022-08-22T06:37:39.065Z,24.86
2022-08-22T06:40:08.982Z,24.90
2022-08-22T06:42:40.710Z,24.96
2022-08-22T06:45:11.310Z,24.98
2022-08-22T06:47:53.008Z,25.01
2022-08-22T06:50:30.267Z,25.05
2022-08-22T06:53:01.355Z,25.06
2022-08-22T06:55:30.423Z,25.09
2022-08-22T06:58:21.750Z,25.15
2022-08-22T07:01:05.767Z,25.19
2022-08-22T07:03:44.983Z,25.22
2022-08-22T07:06:14.627Z,25.30
2022-08-22T07:08:42.683Z,25.41
2022-08-22T07:11:25.598Z,25.53
2022-08-22T07:13:57.187Z,25.64
2022-08-22T07:16:28.669Z,25.66
2022-08-22T07:18:57.520Z,25.78
2022-08-22T07:21:31.112Z,25.84
2022-08-22T07:24:04.621Z,25.86
2022-08-22T07:26:57.305Z,25.87
2022-08-22T07:29:38.114Z,25.92
2022-08-22T07:32:09.185Z,26.00
2022-08-22T07:34:38.239Z,26.08
2022-08-22T07:37:12.227Z,26.18
2022-08-22T07:39:43.313Z,26.22
2022-08-22T07:42:21.684Z,26.26
2022-08-22T07:44:49.415Z,26.27
2022-08-22T07:47:26.124Z,26.30
2022-08-22T07:49:58.919Z,26.32
2022-08-22T07:52:32.541Z,26.42
2022-08-22T07:55:09.054Z,26.51
2022-08-22T07:57:38.656Z,26.60
2022-08-22T08:00:11.825Z,26.68
2022-08-22T08:02:56.574Z,26.75
2022-08-22T08:05:27.648Z,26.87
2022-08-22T08:07:56.131Z,27.00
2022-08-22T08:10:30.025Z,27.09
2022-08-22T08:13:03.482Z,27.16
2022-08-22T08:15:34.604Z,27.22
2022-08-22T08:18:05.663Z,27.46
2022-08-22T08:20:35.151Z,27.66
2022-08-22T08:23:07.342Z,27.74
2022-08-22T08:25:53.499Z,27.76
2022-08-22T08:28:34.293Z,27.73
2022-08-22T08:31:07.645Z,27.76
2022-08-22T08:33:37.693Z,27.74
2022-08-22T08:36:24.238Z,27.70
2022-08-22T08:38:52.465Z,27.71
2022-08-22T08:41:44.138Z,27.65
2022-08-22T08:44:12.135Z,27.62
2022-08-22T08:46:55.658Z,27.68
2022-08-22T08:49:43.131Z,27.71
2022-08-22T08:52:14.797Z,27.79
2022-08-22T08:55:20.040Z,27.81
2022-08-22T08:57:53.686Z,27.87
2022-08-22T09:00:30.261Z,27.87
2022-08-22T09:02:59.080Z,27.93
2022-08-22T09:05:36.046Z,28.03
2022-08-22T09:08:20.514Z,28.19
2022-08-22T09:10:48.630Z,28.32
2022-08-22T09:13:22.786Z,28.39
2022-08-22T09:16:04.309Z,28.36
2022-08-22T09:18:44.994Z,28.30
2022-08-22T09:21:27.580Z,28.20
2022-08-22T09:24:11.130Z,28.12
2022-08-22T09:26:44.726Z,28.10
2022-08-22T09:29:24.863Z,28.18
2022-08-22T09:32:06.859Z,28.26
2022-08-22T09:34:46.444Z,28.27
2022-08-22T09:37:24.354Z,28.30
2022-08-22T09:40:01.525Z,28.41
2022-08-22T09:42:29.733Z,28.67
2022-08-22T09:44:59.395Z,28.85
2022-08-22T09:47:34.938Z,29.03
2022-08-22T09:50:19.219Z,29.40
2022-08-22T09:53:07.847Z,29.74
2022-08-22T09:55:35.938Z,29.94
2022-08-22T09:58:23.737Z,30.11
2022-08-22T10:01:04.055Z,30.26
2022-08-22T10:03:50.137Z,30.31
2022-08-22T10:06:21.974Z,30.33
2022-08-22T10:09:01.256Z,30.32
2022-08-22T10:11:34.850Z,30.24
2022-08-22T10:14:06.967Z,30.42
2022-08-22T10:17:02.737Z,30.53
2022-08-22T10:19:32.010Z,30.54
2022-08-22T10:22:02.707Z,30.43
2022-08-22T10:24:43.690Z,30.43
2022-08-22T10:27:18.270Z,30.56
2022-08-22T10:29:49.449Z,30.51
2022-08-22T10:32:31.171Z,30.32
2022-08-22T10:35:03.422Z,30.18
2022-08-22T10:37:37.320Z,30.07
2022-08-22T10:40:07.994Z,29.99
2022-08-22T10:42:42.800Z,29.97
2022-08-22T10:45:36.503Z,29.95
2022-08-22T10:48:05.151Z,29.95
2022-08-22T10:50:40.697Z,29.93
2022-08-22T10:53:30.693Z,29.85
2022-08-22T10:56:04.514Z,29.74
2022-08-22T10:58:36.839Z,29.69
2022-08-22T11:01:38.187Z,29.68
2022-08-22T11:04:05.107Z,29.64
2022-08-22T11:06:44.824Z,29.63
2022-08-22T11:09:36.832Z,29.70
2022-08-22T11:12:21.741Z,29.74
2022-08-22T11:14:49.723Z,29.74
2022-08-22T11:17:35.518Z,29.71
2022-08-22T11:20:26.781Z,29.72
2022-08-22T11:23:13.467Z,29.75
2022-08-22T11:25:53.901Z,29.85
2022-08-22T11:28:40.989Z,29.80
2022-08-22T11:31:36.692Z,29.68
2022-08-22T11:34:05.771Z,29.56
2022-08-22T11:36:41.227Z,29.40
2022-08-22T11:39:18.157Z,29.09
2022-08-22T11:42:06.978Z,28.84
2022-08-22T11:44:50.275Z,28.77
2022-08-22T11:47:26.518Z,28.75
2022-08-22T11:50:03.494Z,28.65
2022-08-22T11:52:51.523Z,28.58
2022-08-22T11:55:32.761Z,28.56
2022-08-22T11:58:14.024Z,28.53
2022-08-22T12:01:00.231Z,28.28
2022-08-22T12:03:39.325Z,27.76
2022-08-22T12:06:25.226Z,27.34
2022-08-22T12:09:12.026Z,26.96
2022-08-22T12:11:46.055Z,26.63
2022-08-22T12:14:19.456Z,26.05
2022-08-22T12:16:50.243Z,25.31
2022-08-22T12:19:27.624Z,24.86
2022-08-22T12:22:21.096Z,24.54
2022-08-22T12:25:04.851Z,24.25
2022-08-22T12:27:48.162Z,24.11
2022-08-22T12:30:40.120Z,23.88
2022-08-22T12:33:26.818Z,23.69
2022-08-22T12:35:55.279Z,23.48
2022-08-22T12:38:28.216Z,23.21
2022-08-22T12:41:28.459Z,23.01
2022-08-22T12:44:03.956Z,22.82
2022-08-22T12:46:34.869Z,22.75
2022-08-22T12:49:20.977Z,22.73
2022-08-22T12:52:04.562Z,22.78
2022-08-22T12:54:51.413Z,22.84
2022-08-22T12:57:23.670Z,22.88
2022-08-22T13:00:00.200Z,22.90
2022-08-22T13:02:34.011Z,22.99
2022-08-22T13:05:02.596Z,23.09
2022-08-22T13:07:32.962Z,23.25
2022-08-22T13:10:03.646Z,23.44
2022-08-22T13:12:43.926Z,23.82
2022-08-22T13:15:22.157Z,24.26
2022-08-22T13:17:52.064Z,24.53
2022-08-22T13:20:33.779Z,24.83
2022-08-22T13:23:12.410Z,25.04
2022-08-22T13:26:01.261Z,25.22
2022-08-22T13:28:31.140Z,25.35
2022-08-22T13:31:01.332Z,25.55
2022-08-22T13:33:33.512Z,25.87
2022-08-22T13:36:10.847Z,26.15
2022-08-22T13:39:09.899Z,26.34
2022-08-22T13:41:46.401Z,26.38
2022-08-22T13:44:19.385Z,26.42
2022-08-22T13:47:13.051Z,26.58
2022-08-22T13:49:39.855Z,26.81
2022-08-22T13:52:29.153Z,27.05
2022-08-22T13:54:58.048Z,27.26
2022-08-22T13:57:28.788Z,27.40
2022-08-22T14:00:28.687Z,27.46
2022-08-22T14:03:08.156Z,27.55
2022-08-22T14:05:51.279Z,27.67
2022-08-22T14:08:23.219Z,27.78
2022-08-22T14:11:01.430Z,27.88
2022-08-22T14:13:46.777Z,27.94
2022-08-22T14:16:21.846Z,28.03
2022-08-22T14:18:54.557Z,28.12
2022-08-22T14:21:40.322Z,28.27
2022-08-22T14:24:28.520Z,28.39
2022-08-22T14:26:57.916Z,28.44
2022-08-22T14:29:31.892Z,28.52
2022-08-22T14:32:03.530Z,28.37
2022-08-22T14:34:36.516Z,28.17
2022-08-22T14:37:16.187Z,27.90
2022-08-22T14:39:56.786Z,27.71
2022-08-22T14:42:30.658Z,27.65
2022-08-22T14:45:09.379Z,27.64
2022-08-22T14:47:54.989Z,27.65
2022-08-22T14:50:53.040Z,27.58
2022-08-22T14:53:25.573Z,27.57
2022-08-22T14:55:58.770Z,27.61
2022-08-22T14:58:27.720Z,27.62
2022-08-22T15:00:57.637Z,27.45
2022-08-22T15:03:28.183Z,27.35
2022-08-22T15:05:56.495Z,27.28
2022-08-22T15:08:42.448Z,27.18
2022-08-22T15:11:21.551Z,27.06
2022-08-22T15:13:53.001Z,27.13
2022-08-22T15:16:25.276Z,27.14
2022-08-22T15:18:53.979Z,27.11
2022-08-22T15:21:28.613Z,27.07
2022-08-22T15:24:00.522Z,26.98
2022-08-22T15:26:33.003Z,26.90
2022-08-22T15:29:23.364Z,26.87
2022-08-22T15:31:53.486Z,26.93
2022-08-22T15:34:42.123Z,27.05
2022-08-22T15:37:16.725Z,27.21
2022-08-22T15:40:14.547Z,27.22
2022-08-22T15:42:50.228Z,27.19
2022-08-22T15:45:37.422Z,27.20
2022-08-22T15:48:13.938Z,27.21
2022-08-22T15:50:56.321Z,27.19
2022-08-22T15:53:46.273Z,27.20
2022-08-22T15:56:18.848Z,27.16
2022-08-22T15:58:52.770Z,27.05
2022-08-22T16:01:27.509Z,27.00
2022-08-22T16:04:06.954Z,26.98
2022-08-22T16:06:56.596Z,26.97
2022-08-22T16:09:30.491Z,26.95
2022-08-22T16:12:00.460Z,26.93
2022-08-22T16:14:37.942Z,26.87
2022-08-22T16:17:27.831Z,26.80
2022-08-22T16:20:08.029Z,26.75
2022-08-22T16:22:57.022Z,26.72
2022-08-22T16:25:53.241Z,26.63
2022-08-22T16:28:41.487Z,26.53
2022-08-22T16:31:39.142Z,26.44
2022-08-22T16:34:16.988Z,26.36
2022-08-22T16:36:51.473Z,26.33
2022-08-22T16:39:22.692Z,26.30
2022-08-22T16:41:53.136Z,26.28
2022-08-22T16:44:24.380Z,26.24
2022-08-22T16:46:53.298Z,26.22
2022-08-22T16:49:27.125Z,26.24
2022-08-22T16:52:13.661Z,26.28
2022-08-22T16:54:46.411Z,26.28
2022-08-22T16:57:37.287Z,26.26
2022-08-22T17:00:07.892Z,26.23
2022-08-22T17:02:56.131Z,26.16
2022-08-22T17:05:43.043Z,26.16
2022-08-22T17:08:29.960Z,26.15
2022-08-22T17:11:02.792Z,26.11
2022-08-22T17:13:34.156Z,26.05
2022-08-22T17:16:08.355Z,26.00
2022-08-22T17:18:40.559Z,25.94
2022-08-22T17:21:25.650Z,25.91
2022-08-22T17:24:06.655Z,25.80
2022-08-22T17:26:50.867Z,25.73
2022-08-22T17:29:43.639Z,25.69
2022-08-22T17:32:30.103Z,25.65
2022-08-22T17:35:01.889Z,25.61
2022-08-22T17:37:30.492Z,25.55
2022-08-22T17:40:06.618Z,25.51
2022-08-22T17:42:38.734Z,25.47
2022-08-22T17:45:12.428Z,25.43
2022-08-22T17:47:50.414Z,25.41
2022-08-22T17:50:42.032Z,25.42
2022-08-22T17:53:23.571Z,25.42
2022-08-22T17:55:58.203Z,25.41
2022-08-22T17:58:43.403Z,25.38
2022-08-22T18:01:15.900Z,25.36
2022-08-22T18:03:49.714Z,25.34
2022-08-22T18:06:24.928Z,25.31
2022-08-22T18:09:13.895Z,25.23
2022-08-22T18:11:51.958Z,25.13
2022-08-22T18:14:38.131Z,25.13
2022-08-22T18:17:26.426Z,25.12
2022-08-22T18:19:58.958Z,25.14
2022-08-22T18:22:32.145Z,25.17
2022-08-22T18:25:18.946Z,25.17
2022-08-22T18:27:58.549Z,25.16
2022-08-22T18:30:29.693Z,25.16
2022-08-22T18:33:02.295Z,25.15
2022-08-22T18:35:53.673Z,25.14
2022-08-22T18:38:33.109Z,25.07
2022-08-22T18:41:16.999Z,25.01
2022-08-22T18:43:48.835Z,24.97
2022-08-22T18:46:32.604Z,24.97
2022-08-22T18:49:22.173Z,24.96
2022-08-22T18:52:06.032Z,24.94
2022-08-22T18:54:49.187Z,24.94
2022-08-22T18:57:36.748Z,24.93
2022-08-22T19:00:16.483Z,24.91
2022-08-22T19:03:01.533Z,24.89
2022-08-22T19:05:54.139Z,24.87
2022-08-22T19:08:33.994Z,24.86
2022-08-22T19:11:05.834Z,24.84
2022-08-22T19:13:46.850Z,24.82
2022-08-22T19:16:18.344Z,24.82
2022-08-22T19:19:01.696Z,24.80
2022-08-22T19:22:00.150Z,24.76
2022-08-22T19:24:36.274Z,24.70
2022-08-22T19:27:08.595Z,24.67
2022-08-22T19:29:37.036Z,24.64
2022-08-22T19:32:13.217Z,24.61
2022-08-22T19:35:10.483Z,24.58
2022-08-22T19:38:06.523Z,24.53
2022-08-22T19:40:55.987Z,24.49
2022-08-22T19:43:29.962Z,24.49
2022-08-22T19:45:59.392Z,24.54
2022-08-22T19:48:29.037Z,24.55
2022-08-22T19:51:11.289Z,24.56
2022-08-22T19:53:48.727Z,24.57
2022-08-22T19:56:20.088Z,24.56
2022-08-22T19:59:02.850Z,24.56
2022-08-22T20:01:30.932Z,24.56
2022-08-22T20:04:07.533Z,24.59
2022-08-22T20:06:43.889Z,24.61
2022-08-22T20:09:28.014Z,24.64
2022-08-22T20:12:06.345Z,24.67
2022-08-22T20:14:36.140Z,24.67
2022-08-22T20:17:27.512Z,24.66
2022-08-22T20:20:24.507Z,24.66
2022-08-22T20:23:16.823Z,24.67
2022-08-22T20:25:49.691Z,24.63
2022-08-22T20:28:20.798Z,24.57
2022-08-22T20:30:51.772Z,24.53
2022-08-22T20:33:27.689Z,24.49
2022-08-22T20:35:59.406Z,24.45
2022-08-22T20:38:32.462Z,24.41
2022-08-22T20:41:22.166Z,24.38
2022-08-22T20:43:52.316Z,24.37
2022-08-22T20:46:26.392Z,24.36
2022-08-22T20:48:56.690Z,24.33
2022-08-22T20:51:26.321Z,24.31
2022-08-22T20:53:56.202Z,24.27
2022-08-22T20:56:37.031Z,24.25
2022-08-22T20:59:22.266Z,24.20
2022-08-22T21:01:57.464Z,24.14
2022-08-22T21:04:27.478Z,24.09
2022-08-22T21:07:02.532Z,24.06
2022-08-22T21:09:48.842Z,24.04
2022-08-22T21:12:17.097Z,24.02
2022-08-22T21:14:48.543Z,24.01
2022-08-22T21:17:19.714Z,24.00
2022-08-22T21:19:48.581Z,23.98
2022-08-22T21:22:19.734Z,23.95
2022-08-22T21:24:48.863Z,23.94
2022-08-22T21:27:24.644Z,23.96
2022-08-22T21:29:53.175Z,23.93
2022-08-22T21:32:33.961Z,23.90
2022-08-22T21:35:04.539Z,23.91
2022-08-22T21:37:32.955Z,23.92
2022-08-22T21:40:08.885Z,23.90
2022-08-22T21:42:44.787Z,23.83
2022-08-22T21:45:30.868Z,23.75
2022-08-22T21:47:58.934Z,23.69
2022-08-22T21:50:32.250Z,23.66
2022-08-22T21:53:06.093Z,23.63
2022-08-22T21:55:42.932Z,23.62
2022-08-22T21:58:35.978Z,23.60
2022-08-22T22:01:27.409Z,23.59
2022-08-22T22:03:55.787Z,23.54
2022-08-22T22:06:24.759Z,23.53
2022-08-22T22:08:53.414Z,23.53
2022-08-22T22:11:22.079Z,23.51
2022-08-22T22:13:50.141Z,23.49
2022-08-22T22:16:21.419Z,23.45
2022-08-22T22:18:49.843Z,23.42
2022-08-22T22:21:18.737Z,23.36
2022-08-22T22:23:47.779Z,23.29
2022-08-22T22:26:15.785Z,23.25
2022-08-22T22:28:49.510Z,23.22
2022-08-22T22:31:18.666Z,23.14
2022-08-22T22:33:47.540Z,23.06
2022-08-22T22:36:18.829Z,23.00
2022-08-22T22:38:47.455Z,22.96
2022-08-22T22:41:15.957Z,22.97
2022-08-22T22:43:44.618Z,22.99
2022-08-22T22:46:13.240Z,23.01
2022-08-22T22:48:42.164Z,23.04
2022-08-22T22:51:11.614Z,23.05
2022-08-22T22:53:43.107Z,23.06
2022-08-22T22:56:16.788Z,23.06
2022-08-22T22:58:45.196Z,23.05
2022-08-22T23:01:17.718Z,23.00
2022-08-22T23:03:46.349Z,22.94
2022-08-22T23:06:16.137Z,22.90
2022-08-22T23:08:44.686Z,22.88
2022-08-22T23:11:14.341Z,22.87
2022-08-22T23:13:43.212Z,22.87
2022-08-22T23:16:12.621Z,22.87
2022-08-22T23:18:41.807Z,22.87
2022-08-22T23:21:15.426Z,22.89
2022-08-22T23:23:43.600Z,22.93
2022-08-22T23:26:12.120Z,22.95
2022-08-22T23:28:40.613Z,22.97
2022-08-22T23:31:17.476Z,22.97
2022-08-22T23:33:46.200Z,22.97
2022-08-22T23:36:17.213Z,22.98
2022-08-22T23:38:46.070Z,22.97
2022-08-22T23:41:17.778Z,22.99
2022-08-22T23:43:49.188Z,23.00
2022-08-22T23:46:19.645Z,23.01
2022-08-22T23:48:48.255Z,23.00
2022-08-22T23:51:17.793Z,22.96
2022-08-22T23:53:51.960Z,22.92
2022-08-22T23:56:22.530Z,22.94
2022-08-22T23:58:51.214Z,22.94
